sensor_id;sensor_type;location;lat;lon;timestamp;P1;P2;P0
50321;PMS5003;36227;53.366;-1.426;2023-04-28T00:00:02;53;48;
50321;PMS5003;36227;53.366;-1.426;2023-04-28T00:02:27;46;43;
50321;PMS5003;36227;53.366;-1.426;2023-04-28T00:04:52;51;51;
50321;PMS5003;36227;53.366;-1.426;2023-04-28T00:07:18;46;44;
50321;PMS5003;36227;53.366;-1.426;2023-04-28T00:09:43;50;45;
50321;PMS5003;36227;53.366;-1.426;2023-04-28T00:12:09;45;40;
50321;PMS5003;36227;53.366;-1.426;2023-04-28T00:14:34;46;43;
50321;PMS5003;36227;53.366;-1.426;2023-04-28T00:17:00;50;46;
50321;PMS5003;36227;53.366;-1.426;2023-04-28T00:19:25;48;44;
50321;PMS5003;36227;53.366;-1.426;2023-04-28T00:21:51;48;43;
50321;PMS5003;36227;53.366;-1.426;2023-04-28T00:24:16;49;43;
50321;PMS5003;36227;53.366;-1.426;2023-04-28T00:26:41;47;41;
50321;PMS5003;36227;53.366;-1.426;2023-04-28T00:29:07;38;35;
50321;PMS5003;36227;53.366;-1.426;2023-04-28T00:31:32;43;41;
50321;PMS5003;36227;53.366;-1.426;2023-04-28T00:33:57;42;38;
50321;PMS5003;36227;53.366;-1.426;2023-04-28T00:36:23;47;42;
50321;PMS5003;36227;53.366;-1.426;2023-04-28T00:38:48;39;35;
50321;PMS5003;36227;53.366;-1.426;2023-04-28T00:41:14;46;42;
50321;PMS5003;36227;53.366;-1.426;2023-04-28T00:43:44;37;34;
50321;PMS5003;36227;53.366;-1.426;2023-04-28T00:46:08;41;36;
50321;PMS5003;36227;53.366;-1.426;2023-04-28T00:55:47;37;37;
50321;PMS5003;36227;53.366;-1.426;2023-04-28T01:00:47;44;44;
50321;PMS5003;36227;53.366;-1.426;2023-04-28T01:05:29;46;39;
50321;PMS5003;36227;53.366;-1.426;2023-04-28T01:07:54;42;38;
50321;PMS5003;36227;53.366;-1.426;2023-04-28T01:10:20;44;41;
50321;PMS5003;36227;53.366;-1.426;2023-04-28T01:12:45;45;40;
50321;PMS5003;36227;53.366;-1.426;2023-04-28T01:15:11;41;38;
50321;PMS5003;36227;53.366;-1.426;2023-04-28T01:17:36;36;34;
50321;PMS5003;36227;53.366;-1.426;2023-04-28T01:20:01;37;35;
50321;PMS5003;36227;53.366;-1.426;2023-04-28T01:22:26;40;39;
50321;PMS5003;36227;53.366;-1.426;2023-04-28T01:24:52;45;42;
50321;PMS5003;36227;53.366;-1.426;2023-04-28T01:27:18;40;38;
50321;PMS5003;36227;53.366;-1.426;2023-04-28T01:29:43;43;38;
50321;PMS5003;36227;53.366;-1.426;2023-04-28T01:32:09;44;41;
50321;PMS5003;36227;53.366;-1.426;2023-04-28T01:34:35;40;37;
50321;PMS5003;36227;53.366;-1.426;2023-04-28T01:37:00;43;40;
50321;PMS5003;36227;53.366;-1.426;2023-04-28T01:39:25;35;30;
50321;PMS5003;36227;53.366;-1.426;2023-04-28T01:41:51;41;39;
50321;PMS5003;36227;53.366;-1.426;2023-04-28T01:44:17;40;36;
50321;PMS5003;36227;53.366;-1.426;2023-04-28T01:46:42;40;38;
50321;PMS5003;36227;53.366;-1.426;2023-04-28T01:49:08;41;41;
50321;PMS5003;36227;53.366;-1.426;2023-04-28T01:51:33;42;37;
50321;PMS5003;36227;53.366;-1.426;2023-04-28T01:53:58;42;41;
50321;PMS5003;36227;53.366;-1.426;2023-04-28T01:56:24;34;32;
50321;PMS5003;36227;53.366;-1.426;2023-04-28T01:58:49;42;35;
50321;PMS5003;36227;53.366;-1.426;2023-04-28T02:01:15;41;38;
50321;PMS5003;36227;53.366;-1.426;2023-04-28T02:13:21;49;41;
50321;PMS5003;36227;53.366;-1.426;2023-04-28T02:15:47;45;44;
50321;PMS5003;36227;53.366;-1.426;2023-04-28T02:18:17;46;46;
50321;PMS5003;36227;53.366;-1.426;2023-04-28T02:20:39;44;41;
50321;PMS5003;36227;53.366;-1.426;2023-04-28T02:37:36;38;36;
50321;PMS5003;36227;53.366;-1.426;2023-04-28T02:40:01;45;43;
50321;PMS5003;36227;53.366;-1.426;2023-04-28T02:42:26;40;36;
50321;PMS5003;36227;53.366;-1.426;2023-04-28T02:44:52;41;38;
50321;PMS5003;36227;53.366;-1.426;2023-04-28T02:47:17;45;44;
50321;PMS5003;36227;53.366;-1.426;2023-04-28T02:49:42;43;41;
50321;PMS5003;36227;53.366;-1.426;2023-04-28T02:52:08;43;39;
50321;PMS5003;36227;53.366;-1.426;2023-04-28T02:54:34;44;39;
50321;PMS5003;36227;53.366;-1.426;2023-04-28T02:56:59;40;38;
50321;PMS5003;36227;53.366;-1.426;2023-04-28T02:59:24;45;39;
50321;PMS5003;36227;53.366;-1.426;2023-04-28T03:01:50;47;39;
50321;PMS5003;36227;53.366;-1.426;2023-04-28T03:04:16;42;39;
50321;PMS5003;36227;53.366;-1.426;2023-04-28T03:06:42;33;31;
50321;PMS5003;36227;53.366;-1.426;2023-04-28T03:09:07;39;37;
50321;PMS5003;36227;53.366;-1.426;2023-04-28T03:11:33;38;36;
50321;PMS5003;36227;53.366;-1.426;2023-04-28T03:13:58;35;31;
50321;PMS5003;36227;53.366;-1.426;2023-04-28T03:16:24;46;42;
50321;PMS5003;36227;53.366;-1.426;2023-04-28T03:18:49;40;35;
50321;PMS5003;36227;53.366;-1.426;2023-04-28T03:21:14;44;41;
50321;PMS5003;36227;53.366;-1.426;2023-04-28T03:23:40;39;37;
50321;PMS5003;36227;53.366;-1.426;2023-04-28T03:26:06;42;34;
50321;PMS5003;36227;53.366;-1.426;2023-04-28T03:43:04;46;42;
50321;PMS5003;36227;53.366;-1.426;2023-04-28T03:45:30;43;41;
50321;PMS5003;36227;53.366;-1.426;2023-04-28T03:47:55;45;40;
50321;PMS5003;36227;53.366;-1.426;2023-04-28T03:50:21;44;39;
50321;PMS5003;36227;53.366;-1.426;2023-04-28T03:52:47;50;45;
50321;PMS5003;36227;53.366;-1.426;2023-04-28T03:55:12;38;36;
50321;PMS5003;36227;53.366;-1.426;2023-04-28T03:57:37;45;41;
50321;PMS5003;36227;53.366;-1.426;2023-04-28T04:00:03;46;41;
50321;PMS5003;36227;53.366;-1.426;2023-04-28T04:02:28;41;40;
50321;PMS5003;36227;53.366;-1.426;2023-04-28T04:04:53;40;37;
50321;PMS5003;36227;53.366;-1.426;2023-04-28T04:07:18;43;41;
50321;PMS5003;36227;53.366;-1.426;2023-04-28T04:09:44;48;40;
50321;PMS5003;36227;53.366;-1.426;2023-04-28T04:12:09;46;40;
50321;PMS5003;36227;53.366;-1.426;2023-04-28T04:14:34;46;39;
50321;PMS5003;36227;53.366;-1.426;2023-04-28T04:17:00;48;45;
50321;PMS5003;36227;53.366;-1.426;2023-04-28T04:19:25;37;35;
50321;PMS5003;36227;53.366;-1.426;2023-04-28T04:21:52;49;47;
50321;PMS5003;36227;53.366;-1.426;2023-04-28T04:24:16;39;35;
50321;PMS5003;36227;53.366;-1.426;2023-04-28T04:26:43;43;40;
50321;PMS5003;36227;53.366;-1.426;2023-04-28T04:29:07;47;44;
50321;PMS5003;36227;53.366;-1.426;2023-04-28T04:31:33;50;41;
50321;PMS5003;36227;53.366;-1.426;2023-04-28T04:33:58;44;40;
50321;PMS5003;36227;53.366;-1.426;2023-04-28T04:36:24;48;45;
50321;PMS5003;36227;53.366;-1.426;2023-04-28T04:38:49;46;40;
50321;PMS5003;36227;53.366;-1.426;2023-04-28T04:41:15;37;36;
50321;PMS5003;36227;53.366;-1.426;2023-04-28T04:43:40;42;42;
50321;PMS5003;36227;53.366;-1.426;2023-04-28T04:46:06;33;31;
50321;PMS5003;36227;53.366;-1.426;2023-04-28T04:48:31;39;36;
50321;PMS5003;36227;53.366;-1.426;2023-04-28T04:51:04;41;39;
50321;PMS5003;36227;53.366;-1.426;2023-04-28T04:53:21;37;35;
50321;PMS5003;36227;53.366;-1.426;2023-04-28T04:55:48;43;39;
50321;PMS5003;36227;53.366;-1.426;2023-04-28T04:58:18;47;42;
50321;PMS5003;36227;53.366;-1.426;2023-04-28T05:00:38;33;33;
50321;PMS5003;36227;53.366;-1.426;2023-04-28T05:03:04;44;41;
50321;PMS5003;36227;53.366;-1.426;2023-04-28T05:05:29;43;36;
50321;PMS5003;36227;53.366;-1.426;2023-04-28T05:07:54;36;34;
50321;PMS5003;36227;53.366;-1.426;2023-04-28T05:10:19;43;39;
50321;PMS5003;36227;53.366;-1.426;2023-04-28T05:12:45;38;35;
50321;PMS5003;36227;53.366;-1.426;2023-04-28T05:15:11;38;36;
50321;PMS5003;36227;53.366;-1.426;2023-04-28T05:17:36;39;37;
50321;PMS5003;36227;53.366;-1.426;2023-04-28T05:20:01;38;35;
50321;PMS5003;36227;53.366;-1.426;2023-04-28T05:22:27;43;36;
50321;PMS5003;36227;53.366;-1.426;2023-04-28T05:24:52;34;34;
50321;PMS5003;36227;53.366;-1.426;2023-04-28T05:27:18;32;31;
50321;PMS5003;36227;53.366;-1.426;2023-04-28T05:29:43;40;33;
50321;PMS5003;36227;53.366;-1.426;2023-04-28T05:34:35;43;39;
50321;PMS5003;36227;53.366;-1.426;2023-04-28T05:37:00;37;36;
50321;PMS5003;36227;53.366;-1.426;2023-04-28T05:39:26;46;39;
50321;PMS5003;36227;53.366;-1.426;2023-04-28T05:41:51;48;40;
50321;PMS5003;36227;53.366;-1.426;2023-04-28T05:44:17;48;42;
50321;PMS5003;36227;53.366;-1.426;2023-04-28T05:46:43;45;45;
50321;PMS5003;36227;53.366;-1.426;2023-04-28T05:49:08;39;35;
50321;PMS5003;36227;53.366;-1.426;2023-04-28T05:51:34;48;43;
50321;PMS5003;36227;53.366;-1.426;2023-04-28T05:53:59;44;42;
50321;PMS5003;36227;53.366;-1.426;2023-04-28T05:56:29;48;41;
50321;PMS5003;36227;53.366;-1.426;2023-04-28T05:58:50;44;38;
50321;PMS5003;36227;53.366;-1.426;2023-04-28T06:01:16;44;41;
50321;PMS5003;36227;53.366;-1.426;2023-04-28T06:03:41;47;41;
50321;PMS5003;36227;53.366;-1.426;2023-04-28T06:08:31;52;44;
50321;PMS5003;36227;53.366;-1.426;2023-04-28T06:10:56;52;45;
50321;PMS5003;36227;53.366;-1.426;2023-04-28T06:13:24;48;39;
50321;PMS5003;36227;53.366;-1.426;2023-04-28T06:18:13;50;42;
50321;PMS5003;36227;53.366;-1.426;2023-04-28T06:20:38;52;47;
50321;PMS5003;36227;53.366;-1.426;2023-04-28T06:23:04;57;51;
50321;PMS5003;36227;53.366;-1.426;2023-04-28T06:25:30;58;51;
50321;PMS5003;36227;53.366;-1.426;2023-04-28T06:27:55;51;41;
50321;PMS5003;36227;53.366;-1.426;2023-04-28T06:30:21;57;49;
50321;PMS5003;36227;53.366;-1.426;2023-04-28T06:32:46;38;36;
50321;PMS5003;36227;53.366;-1.426;2023-04-28T06:35:11;54;46;
50321;PMS5003;36227;53.366;-1.426;2023-04-28T06:37:37;48;44;
50321;PMS5003;36227;53.366;-1.426;2023-04-28T06:40:03;38;37;
50321;PMS5003;36227;53.366;-1.426;2023-04-28T06:42:28;44;37;
50321;PMS5003;36227;53.366;-1.426;2023-04-28T06:44:54;49;42;
50321;PMS5003;36227;53.366;-1.426;2023-04-28T06:47:19;48;41;
50321;PMS5003;36227;53.366;-1.426;2023-04-28T06:49:44;43;39;
50321;PMS5003;36227;53.366;-1.426;2023-04-28T06:52:10;49;45;
50321;PMS5003;36227;53.366;-1.426;2023-04-28T06:54:36;49;44;
50321;PMS5003;36227;53.366;-1.426;2023-04-28T06:57:01;47;41;
50321;PMS5003;36227;53.366;-1.426;2023-04-28T06:59:27;51;43;
50321;PMS5003;36227;53.366;-1.426;2023-04-28T07:01:53;45;36;
50321;PMS5003;36227;53.366;-1.426;2023-04-28T07:04:18;51;43;
50321;PMS5003;36227;53.366;-1.426;2023-04-28T07:06:43;45;38;
50321;PMS5003;36227;53.366;-1.426;2023-04-28T07:09:09;52;44;
50321;PMS5003;36227;53.366;-1.426;2023-04-28T07:11:34;50;39;
50321;PMS5003;36227;53.366;-1.426;2023-04-28T07:14:00;50;42;
50321;PMS5003;36227;53.366;-1.426;2023-04-28T07:16:26;43;38;
50321;PMS5003;36227;53.366;-1.426;2023-04-28T07:18:52;44;40;
50321;PMS5003;36227;53.366;-1.426;2023-04-28T07:21:17;48;43;
50321;PMS5003;36227;53.366;-1.426;2023-04-28T07:23:43;42;37;
50321;PMS5003;36227;53.366;-1.426;2023-04-28T07:26:08;47;44;
50321;PMS5003;36227;53.366;-1.426;2023-04-28T07:28:33;46;42;
50321;PMS5003;36227;53.366;-1.426;2023-04-28T07:30:59;45;37;
50321;PMS5003;36227;53.366;-1.426;2023-04-28T07:33:25;48;44;
50321;PMS5003;36227;53.366;-1.426;2023-04-28T07:35:50;46;43;
50321;PMS5003;36227;53.366;-1.426;2023-04-28T07:38:16;42;38;
50321;PMS5003;36227;53.366;-1.426;2023-04-28T07:40:42;36;34;
50321;PMS5003;36227;53.366;-1.426;2023-04-28T07:43:07;39;38;
50321;PMS5003;36227;53.366;-1.426;2023-04-28T07:45:32;32;29;
50321;PMS5003;36227;53.366;-1.426;2023-04-28T07:47:57;40;35;
50321;PMS5003;36227;53.366;-1.426;2023-04-28T07:50:23;40;36;
50321;PMS5003;36227;53.366;-1.426;2023-04-28T07:52:48;37;35;
50321;PMS5003;36227;53.366;-1.426;2023-04-28T07:55:14;42;38;
50321;PMS5003;36227;53.366;-1.426;2023-04-28T07:57:39;39;37;
50321;PMS5003;36227;53.366;-1.426;2023-04-28T08:00:05;39;37;
50321;PMS5003;36227;53.366;-1.426;2023-04-28T08:02:30;36;31;
50321;PMS5003;36227;53.366;-1.426;2023-04-28T08:04:56;35;29;
50321;PMS5003;36227;53.366;-1.426;2023-04-28T08:07:21;35;28;
50321;PMS5003;36227;53.366;-1.426;2023-04-28T08:09:48;37;37;
50321;PMS5003;36227;53.366;-1.426;2023-04-28T08:12:12;43;37;
50321;PMS5003;36227;53.366;-1.426;2023-04-28T08:14:37;40;35;
50321;PMS5003;36227;53.366;-1.426;2023-04-28T08:17:03;51;44;
50321;PMS5003;36227;53.366;-1.426;2023-04-28T08:19:29;42;37;
50321;PMS5003;36227;53.366;-1.426;2023-04-28T08:21:55;51;42;
50321;PMS5003;36227;53.366;-1.426;2023-04-28T08:24:20;51;41;
50321;PMS5003;36227;53.366;-1.426;2023-04-28T08:26:46;38;34;
50321;PMS5003;36227;53.366;-1.426;2023-04-28T08:29:11;39;33;
50321;PMS5003;36227;53.366;-1.426;2023-04-28T08:31:36;36;32;
50321;PMS5003;36227;53.366;-1.426;2023-04-28T08:34:02;36;34;
50321;PMS5003;36227;53.366;-1.426;2023-04-28T08:36:28;43;40;
50321;PMS5003;36227;53.366;-1.426;2023-04-28T08:38:54;44;42;
50321;PMS5003;36227;53.366;-1.426;2023-04-28T08:41:19;45;38;
50321;PMS5003;36227;53.366;-1.426;2023-04-28T08:43:45;38;34;
50321;PMS5003;36227;53.366;-1.426;2023-04-28T08:46:10;43;35;
50321;PMS5003;36227;53.366;-1.426;2023-04-28T08:48:38;40;35;
50321;PMS5003;36227;53.366;-1.426;2023-04-28T08:51:00;38;34;
50321;PMS5003;36227;53.366;-1.426;2023-04-28T08:53:26;42;36;
50321;PMS5003;36227;53.366;-1.426;2023-04-28T08:55:53;37;35;
50321;PMS5003;36227;53.366;-1.426;2023-04-28T08:58:18;32;30;
50321;PMS5003;36227;53.366;-1.426;2023-04-28T09:00:43;36;31;
50321;PMS5003;36227;53.366;-1.426;2023-04-28T09:03:09;36;31;
50321;PMS5003;36227;53.366;-1.426;2023-04-28T09:05:35;40;36;
50321;PMS5003;36227;53.366;-1.426;2023-04-28T09:08:00;33;27;
50321;PMS5003;36227;53.366;-1.426;2023-04-28T09:10:25;32;27;
50321;PMS5003;36227;53.366;-1.426;2023-04-28T09:12:50;33;29;
50321;PMS5003;36227;53.366;-1.426;2023-04-28T09:17:47;33;29;
50321;PMS5003;36227;53.366;-1.426;2023-04-28T09:22:32;40;33;
50321;PMS5003;36227;53.366;-1.426;2023-04-28T09:24:57;29;24;
50321;PMS5003;36227;53.366;-1.426;2023-04-28T09:27:25;29;27;
50321;PMS5003;36227;53.366;-1.426;2023-04-28T09:29:51;36;35;
50321;PMS5003;36227;53.366;-1.426;2023-04-28T09:32:14;35;29;
50321;PMS5003;36227;53.366;-1.426;2023-04-28T09:34:42;31;27;
50321;PMS5003;36227;53.366;-1.426;2023-04-28T09:37:07;30;28;
50321;PMS5003;36227;53.366;-1.426;2023-04-28T09:39:30;32;30;
50321;PMS5003;36227;53.366;-1.426;2023-04-28T09:41:56;33;32;
50321;PMS5003;36227;53.366;-1.426;2023-04-28T09:44:21;31;30;
50321;PMS5003;36227;53.366;-1.426;2023-04-28T09:46:47;29;27;
50321;PMS5003;36227;53.366;-1.426;2023-04-28T09:49:12;30;27;
50321;PMS5003;36227;53.366;-1.426;2023-04-28T09:51:38;34;29;
50321;PMS5003;36227;53.366;-1.426;2023-04-28T09:54:04;31;23;
50321;PMS5003;36227;53.366;-1.426;2023-04-28T09:56:30;30;30;
50321;PMS5003;36227;53.366;-1.426;2023-04-28T09:58:54;30;28;
50321;PMS5003;36227;53.366;-1.426;2023-04-28T10:01:19;25;25;
50321;PMS5003;36227;53.366;-1.426;2023-04-28T10:03:45;32;30;
50321;PMS5003;36227;53.366;-1.426;2023-04-28T10:06:10;30;30;
50321;PMS5003;36227;53.366;-1.426;2023-04-28T10:08:35;34;30;
50321;PMS5003;36227;53.366;-1.426;2023-04-28T10:11:01;32;29;
50321;PMS5003;36227;53.366;-1.426;2023-04-28T10:13:27;38;32;
50321;PMS5003;36227;53.366;-1.426;2023-04-28T10:15:53;31;26;
50321;PMS5003;36227;53.366;-1.426;2023-04-28T10:18:18;36;30;
50321;PMS5003;36227;53.366;-1.426;2023-04-28T10:20:44;30;29;
50321;PMS5003;36227;53.366;-1.426;2023-04-28T10:23:21;35;29;
50321;PMS5003;36227;53.366;-1.426;2023-04-28T10:27:59;33;29;
50321;PMS5003;36227;53.366;-1.426;2023-04-28T16:43:46;17;14;
50321;PMS5003;36227;53.366;-1.426;2023-04-28T16:46:12;16;16;
50321;PMS5003;36227;53.366;-1.426;2023-04-28T16:48:37;17;14;
50321;PMS5003;36227;53.366;-1.426;2023-04-28T16:51:03;14;14;
50321;PMS5003;36227;53.366;-1.426;2023-04-28T16:53:28;14;13;
50321;PMS5003;36227;53.366;-1.426;2023-04-28T16:55:53;17;14;
50321;PMS5003;36227;53.366;-1.426;2023-04-28T16:58:18;12;12;
50321;PMS5003;36227;53.366;-1.426;2023-04-28T17:00:44;13;12;
50321;PMS5003;36227;53.366;-1.426;2023-04-28T17:03:09;14;14;
50321;PMS5003;36227;53.366;-1.426;2023-04-28T21:07:51;43;41;
50321;PMS5003;36227;53.366;-1.426;2023-04-28T21:10:16;45;41;
50321;PMS5003;36227;53.366;-1.426;2023-04-28T21:12:41;55;51;
50321;PMS5003;36227;53.366;-1.426;2023-04-28T21:15:07;59;55;
50321;PMS5003;36227;53.366;-1.426;2023-04-28T21:17:32;48;47;
50321;PMS5003;36227;53.366;-1.426;2023-04-28T21:19:58;45;44;
50321;PMS5003;36227;53.366;-1.426;2023-04-28T21:22:24;45;44;
50321;PMS5003;36227;53.366;-1.426;2023-04-28T21:24:49;39;37;
50321;PMS5003;36227;53.366;-1.426;2023-04-28T21:27:15;44;42;
50321;PMS5003;36227;53.366;-1.426;2023-04-28T21:29:40;47;41;
50321;PMS5003;36227;53.366;-1.426;2023-04-28T21:32:06;46;40;
50321;PMS5003;36227;53.366;-1.426;2023-04-28T21:34:31;43;42;
50321;PMS5003;36227;53.366;-1.426;2023-04-28T21:36:57;44;41;
50321;PMS5003;36227;53.366;-1.426;2023-04-28T21:39:22;45;41;
50321;PMS5003;36227;53.366;-1.426;2023-04-28T21:41:48;45;41;
50321;PMS5003;36227;53.366;-1.426;2023-04-28T21:44:13;46;43;
50321;PMS5003;36227;53.366;-1.426;2023-04-28T21:46:39;50;48;
50321;PMS5003;36227;53.366;-1.426;2023-04-28T21:49:04;55;50;
50321;PMS5003;36227;53.366;-1.426;2023-04-28T21:51:29;53;48;
50321;PMS5003;36227;53.366;-1.426;2023-04-28T21:53:54;54;52;
50321;PMS5003;36227;53.366;-1.426;2023-04-28T21:56:20;53;48;
50321;PMS5003;36227;53.366;-1.426;2023-04-28T21:58:45;56;51;
50321;PMS5003;36227;53.366;-1.426;2023-04-28T22:01:10;57;49;
50321;PMS5003;36227;53.366;-1.426;2023-04-28T22:03:35;61;55;
50321;PMS5003;36227;53.366;-1.426;2023-04-28T22:06:00;51;49;
50321;PMS5003;36227;53.366;-1.426;2023-04-28T22:08:26;54;54;
50321;PMS5003;36227;53.366;-1.426;2023-04-28T22:10:52;57;55;
50321;PMS5003;36227;53.366;-1.426;2023-04-28T22:13:17;53;51;
50321;PMS5003;36227;53.366;-1.426;2023-04-28T22:15:43;60;52;
50321;PMS5003;36227;53.366;-1.426;2023-04-28T22:18:09;57;53;
50321;PMS5003;36227;53.366;-1.426;2023-04-28T22:20:34;63;58;
50321;PMS5003;36227;53.366;-1.426;2023-04-28T22:23:00;47;44;
50321;PMS5003;36227;53.366;-1.426;2023-04-28T22:25:26;43;43;
50321;PMS5003;36227;53.366;-1.426;2023-04-28T22:27:52;52;49;
50321;PMS5003;36227;53.366;-1.426;2023-04-28T22:30:18;52;50;
50321;PMS5003;36227;53.366;-1.426;2023-04-28T22:32:43;48;48;
50321;PMS5003;36227;53.366;-1.426;2023-04-28T22:35:09;49;47;
50321;PMS5003;36227;53.366;-1.426;2023-04-28T22:37:34;55;51;
50321;PMS5003;36227;53.366;-1.426;2023-04-28T22:40:00;48;46;
50321;PMS5003;36227;53.366;-1.426;2023-04-28T22:42:25;56;51;
50321;PMS5003;36227;53.366;-1.426;2023-04-28T22:44:50;60;55;
50321;PMS5003;36227;53.366;-1.426;2023-04-28T22:47:16;55;50;
50321;PMS5003;36227;53.366;-1.426;2023-04-28T22:49:41;53;47;
50321;PMS5003;36227;53.366;-1.426;2023-04-28T22:52:07;50;44;
50321;PMS5003;36227;53.366;-1.426;2023-04-28T22:54:32;56;52;
50321;PMS5003;36227;53.366;-1.426;2023-04-28T22:56:58;58;52;
50321;PMS5003;36227;53.366;-1.426;2023-04-28T22:59:23;51;51;
50321;PMS5003;36227;53.366;-1.426;2023-04-28T23:01:50;60;51;
50321;PMS5003;36227;53.366;-1.426;2023-04-28T23:04:15;56;51;
50321;PMS5003;36227;53.366;-1.426;2023-04-28T23:06:40;64;59;
50321;PMS5003;36227;53.366;-1.426;2023-04-28T23:09:06;55;53;
50321;PMS5003;36227;53.366;-1.426;2023-04-28T23:11:37;63;56;
50321;PMS5003;36227;53.366;-1.426;2023-04-28T23:13:56;57;56;
50321;PMS5003;36227;53.366;-1.426;2023-04-28T23:18:47;50;47;
50321;PMS5003;36227;53.366;-1.426;2023-04-28T23:21:12;62;54;
50321;PMS5003;36227;53.366;-1.426;2023-04-28T23:23:38;67;60;
50321;PMS5003;36227;53.366;-1.426;2023-04-28T23:26:03;57;53;
50321;PMS5003;36227;53.366;-1.426;2023-04-28T23:28:28;54;49;
50321;PMS5003;36227;53.366;-1.426;2023-04-28T23:30:54;44;43;
50321;PMS5003;36227;53.366;-1.426;2023-04-28T23:33:19;50;45;
50321;PMS5003;36227;53.366;-1.426;2023-04-28T23:35:44;56;54;
50321;PMS5003;36227;53.366;-1.426;2023-04-28T23:38:10;53;49;
50321;PMS5003;36227;53.366;-1.426;2023-04-28T23:40:35;48;48;
50321;PMS5003;36227;53.366;-1.426;2023-04-28T23:43:00;50;48;
50321;PMS5003;36227;53.366;-1.426;2023-04-28T23:45:26;58;54;
50321;PMS5003;36227;53.366;-1.426;2023-04-28T23:47:52;59;55;
50321;PMS5003;36227;53.366;-1.426;2023-04-28T23:50:17;76;68;
50321;PMS5003;36227;53.366;-1.426;2023-04-28T23:52:42;70;66;
50321;PMS5003;36227;53.366;-1.426;2023-04-28T23:55:07;81;75;
50321;PMS5003;36227;53.366;-1.426;2023-04-28T23:57:32;80;75;
50321;PMS5003;36227;53.366;-1.426;2023-04-28T23:59:58;76;70;
